Terminal Aerodrome Forecast
Issued by NWS

Home | Current Version | Previous Version | Text Only | Print | Product List | Glossary On
Versions: 1 2 3 4 5 6 7 8 9 10 11 12 13 14 15 16 17 18 19 20 21 22 23 24 25 26 27 28 29
000
FTUS41 KCTP 250921 AAA
TAFBFD
TAF AMD
KBFD 250921Z 2509/2606 23003KT P6SM OVC035
      TEMPO 2510/2513 OVC030
     FM251400 25010G20KT P6SM BKN050
     FM252100 26008KT P6SM -SHRA BKN025
     FM260000 29010KT P6SM SCT045=

USA.gov is the U.S. government's official web portal to all federal, state and local government web resources and services.